Time;durP1;ratioP1;P1;durP2;ratioP2;P2;SDS_P1;SDS_P2;PMS_P1;PMS_P2;Temp;Humidity;BMP_temperature;BMP_pressure;BME280_temperature;BME280_humidity;BME280_pressure;Samples;Min_cycle;Max_cycle;Signal;HPM_P1;HPM_P2
2022/01/10 00:00:25;;;;;;;9.35;5.15;;;2.80;99.90;;;;;;4966803;28;20052;-79
2022/01/10 00:02:55;;;;;;;11.13;5.90;;;2.90;99.90;;;;;;4967356;28;20325;-80
2022/01/10 00:05:21;;;;;;;11.18;7.05;;;2.90;99.90;;;;;;4967076;29;20035;-80
2022/01/10 00:07:47;;;;;;;11.18;6.30;;;2.90;99.90;;;;;;4967113;29;20046;-80
2022/01/10 00:10:13;;;;;;;11.65;6.38;;;2.90;99.90;;;;;;4994971;28;20285;-80
2022/01/10 00:12:40;;;;;;;10.73;6.55;;;2.90;99.90;;;;;;4985967;28;20074;-79
2022/01/10 00:15:07;;;;;;;12.75;5.65;;;2.90;99.90;;;;;;5000398;28;20049;-81
2022/01/10 00:17:36;;;;;;;13.27;6.13;;;2.90;99.90;;;;;;5001416;28;20347;-78
2022/01/10 00:20:03;;;;;;;9.85;6.75;;;2.90;99.90;;;;;;5000746;28;20018;-79
2022/01/10 00:22:29;;;;;;;9.82;5.70;;;2.90;99.90;;;;;;4986006;28;20045;-79
2022/01/10 00:24:55;;;;;;;10.75;6.18;;;2.80;99.90;;;;;;4985029;28;20053;-79
2022/01/10 00:27:23;;;;;;;9.45;5.13;;;2.80;99.90;;;;;;4986299;28;20031;-81
2022/01/10 00:29:49;;;;;;;;;;;2.90;99.90;;;;;;4987064;28;20085;-79
2022/01/10 00:32:15;;;;;;;10.68;6.20;;;2.90;99.90;;;;;;4981205;28;19925;-80
2022/01/10 00:34:41;;;;;;;12.88;6.63;;;2.80;99.90;;;;;;4985599;28;20093;-79
2022/01/10 00:37:06;;;;;;;11.40;6.20;;;2.80;99.90;;;;;;4984468;28;20324;-80
2022/01/10 00:39:32;;;;;;;15.40;6.47;;;2.70;99.90;;;;;;4969109;28;20039;-80
2022/01/10 00:41:58;;;;;;;11.70;6.40;;;2.80;99.90;;;;;;4986790;28;20093;-79
2022/01/10 00:44:27;;;;;;;11.18;7.05;;;2.80;99.90;;;;;;5004543;28;20037;-79
2022/01/10 00:46:53;;;;;;;12.05;6.20;;;2.80;99.90;;;;;;4990524;28;20444;-80
2022/01/10 00:49:19;;;;;;;14.77;6.85;;;2.80;99.90;;;;;;5003984;28;20328;-79
2022/01/10 00:51:45;;;;;;;15.85;7.15;;;2.80;99.90;;;;;;5003862;28;20049;-80
2022/01/10 00:54:11;;;;;;;18.52;7.82;;;2.80;99.90;;;;;;5003205;28;20034;-79
2022/01/10 00:56:37;;;;;;;17.70;9.20;;;2.80;99.90;;;;;;5003881;28;20239;-79
2022/01/10 00:59:03;;;;;;;17.33;9.00;;;2.70;99.90;;;;;;5004510;28;20260;-79
2022/01/10 01:02:12;;;;;;;16.60;9.18;;;2.70;99.90;;;;;;5004549;28;20065;-80
2022/01/10 01:08:28;;;;;;;17.50;8.55;;;2.70;99.90;;;;;;5004723;28;20078;-80
2022/01/10 01:11:15;;;;;;;12.82;7.88;;;2.70;99.90;;;;;;5023896;28;20060;-80
2022/01/10 01:16:15;;;;;;;15.30;8.43;;;2.70;99.90;;;;;;5006021;28;20033;-80
2022/01/10 01:24:03;;;;;;;16.67;7.95;;;2.80;99.90;;;;;;5006138;28;20042;-80
2022/01/10 01:26:30;;;;;;;13.45;7.82;;;2.70;99.90;;;;;;5006565;28;20074;-80
2022/01/10 01:28:57;;;;;;;13.73;7.47;;;2.70;99.90;;;;;;5006568;28;20026;-80
2022/01/10 01:31:22;;;;;;;14.27;7.03;;;2.70;99.90;;;;;;5005942;28;20030;-80
2022/01/10 01:33:49;;;;;;;14.63;7.50;;;2.70;99.90;;;;;;5006047;28;20060;-79
2022/01/10 01:36:20;;;;;;;15.43;8.25;;;2.80;99.90;;;;;;5006138;28;20041;-80
2022/01/10 01:38:47;;;;;;;14.68;8.05;;;2.80;99.90;;;;;;4987243;28;20084;-79
2022/01/10 01:43:52;;;;;;;17.90;8.80;;;2.90;99.90;;;;;;5004188;28;20030;-80
2022/01/10 01:46:18;;;;;;;20.88;9.77;;;2.90;99.90;;;;;;4986217;28;20303;-80
2022/01/10 01:48:44;;;;;;;24.80;10.68;;;2.90;99.90;;;;;;4986705;28;20101;-80
2022/01/10 01:51:11;;;;;;;22.65;10.18;;;2.90;99.90;;;;;;5002581;28;20061;-80
2022/01/10 01:53:37;;;;;;;28.15;10.70;;;2.90;99.90;;;;;;5003071;28;20210;-79
2022/01/10 01:56:05;;;;;;;22.88;10.52;;;2.90;99.90;;;;;;5003503;28;20084;-80
2022/01/10 01:58:32;;;;;;;20.00;9.65;;;2.90;99.90;;;;;;5002738;28;20022;-80
2022/01/10 02:00:58;;;;;;;22.40;9.27;;;2.90;99.90;;;;;;4986746;28;20045;-80
2022/01/10 02:03:24;;;;;;;18.10;9.10;;;3.00;99.90;;;;;;4986468;28;20034;-80
2022/01/10 02:05:57;;;;;;;20.27;8.35;;;3.10;99.90;;;;;;4971305;28;20208;-80
2022/01/10 02:08:23;;;;;;;18.25;9.00;;;3.20;99.90;;;;;;4986102;28;20030;-79
2022/01/10 02:10:49;;;;;;;18.60;9.50;;;3.20;99.90;;;;;;4986271;28;20269;-79
2022/01/10 02:13:14;;;;;;;13.60;7.90;;;3.20;99.90;;;;;;5004871;28;20234;-80
2022/01/10 02:15:49;;;;;;;18.55;8.82;;;3.20;99.90;;;;;;4986640;28;20037;-80
2022/01/10 02:18:18;;;;;;;17.48;7.75;;;3.20;99.90;;;;;;4985395;28;20037;-80
2022/01/10 02:20:48;;;;;;;14.35;8.23;;;3.20;99.90;;;;;;4986431;28;20033;-79
2022/01/10 02:23:16;;;;;;;12.20;7.03;;;3.20;99.90;;;;;;4985639;28;20026;-80
2022/01/10 02:26:02;;;;;;;13.88;7.03;;;3.20;99.90;;;;;;5002144;28;20045;-79
2022/01/10 02:28:32;;;;;;;13.80;6.80;;;3.10;99.90;;;;;;4986097;28;20030;-79
2022/01/10 02:30:58;;;;;;;14.32;7.85;;;3.10;99.90;;;;;;4986205;28;20073;-80
2022/01/10 02:33:27;;;;;;;12.75;6.65;;;3.10;99.90;;;;;;4985229;28;20022;-80
2022/01/10 02:36:22;;;;;;;14.75;7.57;;;3.10;99.90;;;;;;4986039;28;20081;-79
2022/01/10 02:38:54;;;;;;;15.63;6.90;;;3.10;99.90;;;;;;5004028;28;20303;-80
2022/01/10 02:41:32;;;;;;;13.68;7.57;;;3.10;99.90;;;;;;5005099;28;20034;-79
2022/01/10 02:44:00;;;;;;;13.23;7.40;;;3.10;99.90;;;;;;4988731;28;20076;-79
2022/01/10 02:46:30;;;;;;;14.45;7.22;;;3.10;99.90;;;;;;5005523;28;20034;-79
2022/01/10 02:48:56;;;;;;;14.43;7.88;;;3.10;99.90;;;;;;4989196;28;20037;-80
2022/01/10 02:51:23;;;;;;;14.48;7.10;;;3.10;99.90;;;;;;5004813;28;20029;-80
2022/01/10 02:53:50;;;;;;;14.27;6.43;;;3.20;99.90;;;;;;5005131;28;20064;-80
2022/01/10 02:56:16;;;;;;;15.23;7.47;;;3.30;99.90;;;;;;5004840;28;20312;-80
2022/01/10 02:58:42;;;;;;;14.98;7.95;;;3.30;99.90;;;;;;4988926;28;20029;-80
2022/01/10 03:01:08;;;;;;;13.45;7.63;;;3.30;99.90;;;;;;5004420;28;20026;-79
2022/01/10 03:03:34;;;;;;;13.80;7.43;;;3.40;99.90;;;;;;4989180;28;20034;-79
2022/01/10 03:06:01;;;;;;;14.52;8.32;;;3.30;99.90;;;;;;5005204;28;20105;-80
2022/01/10 03:08:28;;;;;;;14.07;8.07;;;3.30;99.90;;;;;;5004890;28;20029;-80
2022/01/10 03:17:51;;;;;;;14.68;7.30;;;3.40;99.90;;;;;;5942280;23;20032;-79
2022/01/10 03:20:17;;;;;;;13.18;7.07;;;3.40;99.90;;;;;;4985211;28;20026;-79
2022/01/10 03:22:43;;;;;;;14.25;7.10;;;3.40;99.90;;;;;;4985653;28;20082;-79
2022/01/10 03:25:09;;;;;;;13.85;7.85;;;3.40;99.90;;;;;;4984998;28;20026;-79
2022/01/10 03:27:37;;;;;;;12.10;7.53;;;3.40;99.90;;;;;;4985242;28;20025;-79
2022/01/10 03:30:04;;;;;;;14.38;7.57;;;3.40;99.90;;;;;;4985316;28;20030;-79
2022/01/10 03:32:31;;;;;;;12.02;7.22;;;3.50;99.90;;;;;;4985252;28;20022;-79
2022/01/10 03:35:05;;;;;;;13.05;7.97;;;3.50;99.90;;;;;;4985316;28;20257;-80
2022/01/10 03:37:31;;;;;;;13.88;8.10;;;3.50;99.90;;;;;;4985551;28;20033;-79
2022/01/10 03:39:57;;;;;;;14.88;7.80;;;3.50;99.90;;;;;;5002477;28;20045;-79
2022/01/10 03:42:23;;;;;;;14.73;7.55;;;3.50;99.90;;;;;;4984861;28;20201;-79
2022/01/10 03:44:49;;;;;;;14.20;7.57;;;3.40;99.90;;;;;;4985527;28;20038;-80
2022/01/10 03:47:18;;;;;;;13.50;7.70;;;3.40;99.90;;;;;;4984540;28;20239;-80
2022/01/10 03:49:43;;;;;;;;;;;3.40;99.90;;;;;;4969603;28;20375;-79
2022/01/10 03:52:09;;;;;;;13.98;7.28;;;3.50;99.90;;;;;;4984091;28;19906;-79
2022/01/10 03:54:35;;;;;;;11.50;7.35;;;3.60;99.90;;;;;;4969692;28;20038;-79
2022/01/10 03:57:01;;;;;;;18.80;8.85;;;3.60;99.90;;;;;;5006074;28;20030;-79
2022/01/10 03:59:27;;;;;;;13.43;7.60;;;3.60;99.90;;;;;;4988225;28;20038;-79
2022/01/10 04:01:53;;;;;;;15.90;8.30;;;3.60;99.90;;;;;;4988318;28;20018;-79
2022/01/10 04:04:19;;;;;;;16.38;8.38;;;3.50;99.90;;;;;;4971835;28;20026;-79
2022/01/10 04:06:45;;;;;;;13.68;8.05;;;3.50;99.90;;;;;;4988408;28;20077;-79
2022/01/10 04:09:11;;;;;;;14.02;8.25;;;3.50;99.90;;;;;;5005480;28;20210;-79
2022/01/10 04:11:37;;;;;;;14.43;7.57;;;3.50;99.90;;;;;;4988676;28;20090;-79
2022/01/10 04:14:03;;;;;;;11.43;6.53;;;3.40;99.90;;;;;;4988616;28;20224;-79
2022/01/10 04:16:29;;;;;;;13.32;6.90;;;3.40;99.90;;;;;;4988170;28;20186;-79
2022/01/10 04:18:55;;;;;;;15.13;6.40;;;3.40;99.90;;;;;;4988225;28;20073;-79
2022/01/10 04:21:21;;;;;;;12.95;5.95;;;3.40;99.90;;;;;;4987781;28;20301;-79
2022/01/10 04:23:47;;;;;;;13.75;6.82;;;3.40;99.90;;;;;;4988054;28;20209;-80
2022/01/10 04:26:13;;;;;;;14.57;6.78;;;3.40;99.90;;;;;;4988196;28;20033;-80
2022/01/10 04:28:40;;;;;;;14.23;5.97;;;3.40;99.90;;;;;;4988607;28;20102;-79
2022/01/10 04:31:06;;;;;;;12.75;6.05;;;3.40;99.90;;;;;;4988234;28;20026;-80
2022/01/10 04:33:32;;;;;;;10.30;5.57;;;3.40;99.90;;;;;;5005215;28;20101;-80
2022/01/10 04:35:59;;;;;;;13.07;5.60;;;3.40;99.90;;;;;;4988406;28;20250;-81
2022/01/10 04:38:26;;;;;;;10.80;5.70;;;3.40;99.90;;;;;;4970829;28;20062;-80
2022/01/10 04:40:53;;;;;;;11.63;5.18;;;3.40;99.90;;;;;;4968795;28;20057;-78
2022/01/10 04:43:19;;;;;;;12.73;5.22;;;3.30;99.90;;;;;;4968139;28;20078;-79
2022/01/10 04:45:45;;;;;;;11.80;5.35;;;3.40;99.90;;;;;;4985840;28;20090;-79
2022/01/10 04:48:11;;;;;;;12.50;5.40;;;3.40;99.90;;;;;;4985567;28;20077;-80
2022/01/10 04:53:07;;;;;;;11.15;6.07;;;3.40;99.90;;;;;;4968562;28;20031;-79
2022/01/10 04:55:33;;;;;;;12.52;5.30;;;3.30;99.90;;;;;;4969861;28;20126;-79
2022/01/10 04:57:59;;;;;;;11.68;5.75;;;3.30;99.90;;;;;;4986065;28;20246;-80
2022/01/10 05:00:25;;;;;;;13.27;6.00;;;3.30;99.90;;;;;;4967870;28;20159;-79
2022/01/10 05:02:52;;;;;;;13.18;5.78;;;3.30;99.90;;;;;;4968724;28;20069;-80
2022/01/10 05:05:19;;;;;;;13.43;6.10;;;3.30;99.90;;;;;;4967831;28;20078;-80
2022/01/10 05:07:44;;;;;;;18.33;6.90;;;3.40;99.90;;;;;;4967329;28;20450;-79
2022/01/10 05:10:12;;;;;;;17.08;6.63;;;3.30;99.90;;;;;;4967657;28;20030;-80
2022/01/10 05:12:40;;;;;;;12.70;6.43;;;3.30;99.90;;;;;;4968218;28;20033;-82
2022/01/10 05:15:25;;;;;;;14.07;6.72;;;3.40;99.90;;;;;;4985648;28;20233;-79
2022/01/10 05:21:33;;;;;;;12.25;6.00;;;3.50;99.90;;;;;;4944732;29;20075;-80
2022/01/10 05:23:59;;;;;;;12.55;6.25;;;3.60;99.90;;;;;;4945346;29;20030;-79
2022/01/10 05:26:28;;;;;;;10.13;6.00;;;3.50;99.90;;;;;;4944422;29;20217;-80
2022/01/10 05:28:55;;;;;;;13.13;6.63;;;3.60;99.90;;;;;;4945690;29;20274;-80
2022/01/10 05:31:22;;;;;;;12.40;6.90;;;3.60;99.90;;;;;;4944959;29;20288;-79
2022/01/10 05:33:56;;;;;;;15.32;7.22;;;3.60;99.90;;;;;;4945475;29;20039;-78
2022/01/10 05:36:23;;;;;;;11.13;7.57;;;3.60;99.90;;;;;;4945661;29;20229;-78
2022/01/10 05:38:49;;;;;;;15.93;8.07;;;3.60;99.90;;;;;;4945369;29;20027;-78
2022/01/10 05:41:15;;;;;;;16.17;8.73;;;3.60;99.90;;;;;;4961443;29;20050;-78
2022/01/10 05:43:41;;;;;;;14.68;7.90;;;3.60;99.90;;;;;;4929445;29;20032;-77
2022/01/10 05:46:08;;;;;;;12.43;7.22;;;3.70;99.90;;;;;;4945300;29;20321;-79
2022/01/10 05:48:36;;;;;;;14.07;8.27;;;3.60;99.90;;;;;;4928532;29;20026;-79
2022/01/10 05:51:03;;;;;;;17.45;9.02;;;3.60;99.90;;;;;;4960943;29;20230;-78
2022/01/10 05:53:32;;;;;;;17.75;9.45;;;3.60;99.90;;;;;;4945612;29;20090;-78
2022/01/10 05:55:58;;;;;;;16.65;8.98;;;3.60;99.90;;;;;;4960897;29;20028;-78
2022/01/10 05:58:26;;;;;;;18.02;8.55;;;3.60;99.90;;;;;;4928631;29;20031;-79
2022/01/10 06:00:52;;;;;;;14.43;9.02;;;3.60;99.90;;;;;;4944341;29;20023;-78
2022/01/10 06:03:18;;;;;;;18.27;9.38;;;3.60;99.90;;;;;;4962953;29;20340;-79
2022/01/10 06:05:50;;;;;;;20.55;9.77;;;3.60;99.90;;;;;;4963879;29;20034;-78
2022/01/10 06:08:16;;;;;;;17.13;9.32;;;3.70;99.90;;;;;;4963340;29;20039;-79
2022/01/10 06:10:44;;;;;;;16.58;10.18;;;3.60;99.90;;;;;;4963763;29;20103;-78
2022/01/10 06:13:23;;;;;;;16.33;8.98;;;3.60;99.90;;;;;;4963323;29;20039;-78
2022/01/10 06:15:49;;;;;;;17.75;9.63;;;3.60;99.90;;;;;;4963309;29;20278;-80
2022/01/10 06:18:15;;;;;;;16.80;8.95;;;3.60;99.90;;;;;;4963600;28;20143;-83
2022/01/10 06:20:42;;;;;;;15.05;9.25;;;3.60;99.90;;;;;;4976189;28;20055;-80
2022/01/10 06:23:09;;;;;;;16.08;9.48;;;3.60;99.90;;;;;;4966768;28;20030;-81
2022/01/10 06:25:36;;;;;;;14.82;9.10;;;3.60;99.90;;;;;;4982090;28;20026;-80
2022/01/10 06:28:07;;;;;;;21.13;10.15;;;3.50;99.90;;;;;;4982393;28;20041;-79
2022/01/10 06:30:34;;;;;;;17.37;9.83;;;3.50;99.90;;;;;;4981499;28;20030;-81
2022/01/10 06:32:59;;;;;;;21.27;9.98;;;3.50;99.90;;;;;;4982450;28;20360;-80
2022/01/10 06:35:25;;;;;;;22.70;11.20;;;3.50;99.90;;;;;;4977718;28;20039;-80
2022/01/10 06:37:54;;;;;;;20.83;10.82;;;3.50;99.90;;;;;;4947768;29;20123;-80
2022/01/10 06:40:20;;;;;;;18.55;10.27;;;3.40;99.90;;;;;;4962807;29;20322;-80
2022/01/10 06:42:47;;;;;;;22.95;10.93;;;3.30;99.90;;;;;;4947461;29;20027;-79
2022/01/10 06:45:14;;;;;;;22.95;10.95;;;3.40;99.90;;;;;;4963909;28;20139;-79
2022/01/10 06:47:40;;;;;;;24.90;10.98;;;3.40;99.90;;;;;;4962552;29;20041;-80
2022/01/10 06:50:08;;;;;;;23.23;11.60;;;3.40;99.90;;;;;;4962876;29;20225;-79
2022/01/10 06:52:39;;;;;;;23.90;10.82;;;3.40;99.90;;;;;;4962763;29;20146;-80
2022/01/10 06:55:05;;;;;;;23.92;10.57;;;3.50;99.90;;;;;;4962908;29;20229;-80
2022/01/10 06:57:31;;;;;;;21.17;10.27;;;3.50;99.90;;;;;;4962683;29;20019;-81
2022/01/10 07:00:02;;;;;;;24.63;12.07;;;3.40;99.90;;;;;;4962992;28;20306;-80
2022/01/10 07:02:32;;;;;;;23.25;12.07;;;3.50;99.90;;;;;;4959049;28;20035;-80
2022/01/10 07:04:58;;;;;;;24.20;11.32;;;3.40;99.90;;;;;;4982630;28;20184;-80
2022/01/10 07:07:24;;;;;;;22.88;10.82;;;3.40;99.90;;;;;;4981720;28;20258;-80
2022/01/10 07:09:58;;;;;;;21.77;10.75;;;3.40;99.90;;;;;;4963714;28;20038;-80
2022/01/10 07:12:23;;;;;;;27.38;11.88;;;3.40;99.90;;;;;;4962466;29;20102;-79
2022/01/10 07:15:01;;;;;;;19.90;10.82;;;3.50;99.90;;;;;;4963744;29;20217;-79
2022/01/10 07:17:27;;;;;;;26.17;11.50;;;3.50;99.90;;;;;;4964159;28;20225;-80
2022/01/10 07:19:53;;;;;;;27.67;12.35;;;3.50;99.90;;;;;;4978576;28;20272;-80
2022/01/10 07:22:24;;;;;;;24.13;11.00;;;3.40;99.90;;;;;;4975584;28;20031;-79
2022/01/10 07:24:50;;;;;;;22.17;11.15;;;3.40;99.90;;;;;;4962338;28;20030;-81
2022/01/10 07:27:25;;;;;;;25.00;12.10;;;3.40;99.90;;;;;;4970935;28;20022;-81
2022/01/10 07:29:54;;;;;;;20.90;12.05;;;3.40;99.90;;;;;;4964459;28;20035;-79
2022/01/10 07:32:47;;;;;;;21.35;11.40;;;3.40;99.90;;;;;;4970827;29;20054;-81
2022/01/10 07:35:56;;;;;;;19.65;11.32;;;3.40;99.90;;;;;;4981589;28;20041;-80
2022/01/10 07:38:47;;;;;;;23.60;11.48;;;3.50;99.90;;;;;;4967031;29;20058;-80
2022/01/10 07:41:38;;;;;;;25.83;12.45;;;3.50;99.90;;;;;;4966973;29;20075;-82
2022/01/10 07:44:30;;;;;;;23.42;11.52;;;3.50;99.90;;;;;;4966121;29;20033;-81
2022/01/10 07:47:21;;;;;;;20.65;11.05;;;3.50;99.90;;;;;;4965416;29;20126;-81
2022/01/10 07:50:17;;;;;;;21.98;11.38;;;3.50;99.90;;;;;;4966138;29;20038;-81
2022/01/10 07:56:56;;;;;;;19.38;10.77;;;3.50;99.90;;;;;;4967774;29;20096;-83
2022/01/10 07:59:47;;;;;;;20.90;11.05;;;3.50;99.90;;;;;;4966292;29;20034;-80
2022/01/10 08:02:39;;;;;;;20.45;11.70;;;3.50;99.90;;;;;;4965651;29;20065;-80
2022/01/10 08:05:29;;;;;;;22.15;12.32;;;3.50;99.90;;;;;;4968084;28;20356;-79
2022/01/10 08:08:20;;;;;;;21.60;12.80;;;3.50;99.90;;;;;;4984981;28;20107;-80
2022/01/10 08:11:20;;;;;;;23.42;13.07;;;3.60;99.90;;;;;;4986818;28;20166;-79
2022/01/10 08:14:10;;;;;;;21.80;13.02;;;3.50;99.90;;;;;;4985396;28;20038;-80
2022/01/10 08:17:01;;;;;;;21.27;12.18;;;3.60;99.90;;;;;;4976537;28;20025;-79
2022/01/10 08:19:53;;;;;;;24.30;12.75;;;3.60;99.90;;;;;;4984736;28;20073;-79
2022/01/10 08:22:50;;;;;;;23.88;13.65;;;3.60;99.90;;;;;;4986001;28;20072;-80
2022/01/10 08:25:41;;;;;;;20.80;13.47;;;3.60;99.90;;;;;;5004863;28;20232;-79
2022/01/10 08:28:10;;;;;;;23.70;13.57;;;3.60;99.90;;;;;;4989757;28;20333;-79
2022/01/10 08:31:00;;;;;;;25.13;13.95;;;3.70;99.90;;;;;;5008093;28;20078;-79
2022/01/10 08:33:52;;;;;;;23.45;14.18;;;3.70;99.90;;;;;;5004990;28;20036;-78
2022/01/10 08:36:42;;;;;;;24.67;13.23;;;3.80;99.90;;;;;;5001456;28;20037;-80
2022/01/10 08:39:27;;;;;;;25.67;13.32;;;3.90;99.90;;;;;;4970731;28;20349;-79
2022/01/10 08:42:13;;;;;;;24.42;14.80;;;4.00;99.90;;;;;;4984165;28;20224;-80
2022/01/10 08:44:43;;;;;;;25.67;14.23;;;4.00;99.90;;;;;;4985320;28;20225;-79
2022/01/10 08:47:08;;;;;;;21.30;13.32;;;4.10;99.90;;;;;;4951817;28;20041;-80
2022/01/10 08:49:34;;;;;;;20.70;12.68;;;4.00;99.90;;;;;;4968977;28;20046;-80
2022/01/10 08:52:25;;;;;;;23.05;13.35;;;4.10;99.90;;;;;;5003480;28;20029;-80
2022/01/10 08:54:58;;;;;;;24.88;13.00;;;4.20;99.90;;;;;;4988732;28;20325;-80
2022/01/10 08:57:25;;;;;;;20.40;13.02;;;4.30;99.90;;;;;;4970671;28;20034;-80
2022/01/10 08:59:52;;;;;;;22.05;12.82;;;4.40;99.90;;;;;;4986992;28;20113;-80
2022/01/10 09:02:18;;;;;;;20.25;12.88;;;4.40;99.90;;;;;;4986425;28;20043;-81
2022/01/10 09:04:44;;;;;;;22.60;12.48;;;4.60;99.90;;;;;;4986883;28;20039;-80
2022/01/10 09:07:11;;;;;;;20.10;11.70;;;4.60;99.90;;;;;;5004158;28;20363;-80
2022/01/10 09:09:37;;;;;;;19.42;11.75;;;4.70;99.90;;;;;;5003630;28;20034;-78
2022/01/10 09:12:04;;;;;;;21.90;12.02;;;4.70;99.90;;;;;;4987071;28;20045;-82
2022/01/10 09:14:30;;;;;;;20.05;10.93;;;4.80;99.90;;;;;;5002808;28;20052;-81
2022/01/10 09:16:55;;;;;;;23.00;12.50;;;4.80;99.90;;;;;;4953970;28;20042;-82
2022/01/10 09:19:21;;;;;;;21.98;11.57;;;4.70;99.90;;;;;;4986590;28;20034;-81
2022/01/10 09:21:48;;;;;;;21.63;11.88;;;4.80;99.90;;;;;;4986627;28;20090;-81
2022/01/10 09:24:14;;;;;;;18.05;11.05;;;4.70;99.90;;;;;;4983314;28;20062;-81
2022/01/10 09:26:40;;;;;;;21.20;11.10;;;4.80;99.90;;;;;;4982950;28;20030;-81
2022/01/10 09:29:06;;;;;;;22.40;11.90;;;4.90;99.90;;;;;;4983516;28;20026;-80
2022/01/10 09:31:33;;;;;;;22.40;12.00;;;4.90;99.90;;;;;;4983592;28;20055;-81
2022/01/10 09:34:00;;;;;;;22.77;11.48;;;5.00;99.90;;;;;;4983603;28;20034;-80
2022/01/10 09:36:29;;;;;;;23.95;12.40;;;5.00;99.90;;;;;;4984440;28;20384;-81
2022/01/10 09:38:57;;;;;;;22.52;11.05;;;5.10;99.90;;;;;;4984361;28;20396;-81
2022/01/10 09:41:23;;;;;;;20.60;11.98;;;5.20;99.90;;;;;;4985392;28;20033;-79
2022/01/10 09:44:01;;;;;;;19.52;11.48;;;5.20;99.90;;;;;;4967477;28;20030;-81
2022/01/10 09:46:27;;;;;;;21.10;12.75;;;5.30;99.90;;;;;;4966669;28;20219;-82
2022/01/10 09:48:54;;;;;;;19.25;11.40;;;5.30;99.90;;;;;;4983820;28;20027;-80
2022/01/10 09:51:23;;;;;;;21.88;12.10;;;5.30;99.90;;;;;;4984906;28;20033;-80
2022/01/10 09:53:49;;;;;;;22.98;12.30;;;5.30;99.90;;;;;;4982531;28;20050;-79
2022/01/10 09:56:16;;;;;;;24.58;11.93;;;5.30;99.90;;;;;;4983130;28;20037;-79
2022/01/10 09:58:43;;;;;;;20.80;11.68;;;5.40;99.90;;;;;;4982855;28;20026;-80
2022/01/10 10:01:13;;;;;;;21.52;11.77;;;5.40;99.90;;;;;;4983320;28;20068;-80
2022/01/10 10:03:42;;;;;;;21.00;11.20;;;5.30;99.90;;;;;;4983700;28;20043;-80
2022/01/10 10:06:09;;;;;;;19.38;11.05;;;5.50;99.90;;;;;;4983605;28;20030;-81
2022/01/10 10:08:39;;;;;;;18.25;10.32;;;5.70;99.90;;;;;;4983056;28;20204;-80
2022/01/10 10:11:07;;;;;;;18.80;9.93;;;6.10;99.90;;;;;;4984702;28;20217;-79
2022/01/10 10:13:53;;;;;;;15.35;8.68;;;6.30;99.90;;;;;;4983640;28;20031;-79
2022/01/10 10:16:20;;;;;;;18.75;9.77;;;6.60;99.90;;;;;;4984083;28;20042;-79
2022/01/10 10:18:47;;;;;;;19.30;10.48;;;6.90;99.90;;;;;;4982724;28;20038;-80
2022/01/10 10:21:14;;;;;;;20.13;9.57;;;7.00;99.90;;;;;;4967754;28;20038;-79
2022/01/10 10:23:46;;;;;;;17.08;10.65;;;7.10;99.90;;;;;;4982475;28;20345;-80
2022/01/10 10:26:16;;;;;;;17.65;10.57;;;7.00;99.90;;;;;;4983116;28;20078;-80
2022/01/10 10:28:45;;;;;;;21.40;11.05;;;6.70;99.90;;;;;;4983895;28;20027;-80
2022/01/10 10:31:10;;;;;;;16.45;10.35;;;6.60;99.90;;;;;;4982615;28;20043;-80
2022/01/10 10:33:47;;;;;;;19.23;10.57;;;6.60;99.90;;;;;;4982742;28;20034;-81
2022/01/10 10:36:13;;;;;;;22.27;12.00;;;6.60;99.90;;;;;;4984828;28;20027;-79
2022/01/10 10:38:39;;;;;;;18.05;11.38;;;6.70;99.90;;;;;;4981748;28;20030;-79
2022/01/10 10:41:06;;;;;;;21.70;11.13;;;6.50;99.90;;;;;;4981869;28;20106;-81
2022/01/10 10:43:33;;;;;;;18.52;11.20;;;6.60;99.90;;;;;;4982363;28;20384;-79
2022/01/10 10:46:01;;;;;;;18.93;11.37;;;6.50;99.90;;;;;;4983042;28;20042;-78
2022/01/10 10:48:27;;;;;;;21.40;11.57;;;6.40;99.90;;;;;;4983550;28;20038;-79
2022/01/10 10:50:54;;;;;;;20.50;11.93;;;6.30;99.90;;;;;;4982470;28;20221;-80
2022/01/10 10:53:20;;;;;;;17.45;10.40;;;6.40;99.90;;;;;;4968057;28;20105;-81
2022/01/10 10:55:46;;;;;;;20.00;9.38;;;6.50;99.90;;;;;;4968619;28;20035;-79
2022/01/10 10:58:13;;;;;;;15.65;8.93;;;6.40;99.90;;;;;;4963950;28;20019;-79
2022/01/10 11:00:39;;;;;;;19.73;8.77;;;6.50;99.90;;;;;;4963189;28;20050;-79
2022/01/10 11:03:06;;;;;;;13.48;8.60;;;6.70;99.90;;;;;;4963585;29;20209;-79
2022/01/10 11:05:33;;;;;;;14.52;8.77;;;6.80;99.90;;;;;;4962277;29;20066;-78
2022/01/10 11:07:59;;;;;;;17.55;8.63;;;7.10;99.90;;;;;;4963665;28;20031;-78
2022/01/10 11:10:25;;;;;;;12.63;7.43;;;7.30;99.90;;;;;;4965330;28;20218;-78
2022/01/10 11:12:54;;;;;;;17.83;7.65;;;7.60;99.90;;;;;;4982340;28;20102;-79
2022/01/10 11:15:24;;;;;;;13.48;7.15;;;7.60;99.90;;;;;;4980841;28;20069;-79
2022/01/10 11:17:53;;;;;;;15.43;7.47;;;7.90;99.90;;;;;;4981897;28;20038;-79
2022/01/10 11:20:21;;;;;;;12.75;6.53;;;8.20;99.90;;;;;;4982676;28;20026;-80
2022/01/10 11:22:55;;;;;;;13.73;6.40;;;8.60;99.90;;;;;;4968306;28;20072;-80
2022/01/10 11:25:28;;;;;;;13.45;7.15;;;9.30;99.90;;;;;;5002194;28;20329;-80
2022/01/10 11:28:26;;;;;;;15.57;7.15;;;9.50;99.90;;;;;;4985120;28;20042;-79
2022/01/10 11:31:03;;;;;;;12.52;6.25;;;9.40;99.90;;;;;;5000185;28;20122;-79
2022/01/10 11:33:32;;;;;;;10.15;5.60;;;9.40;99.90;;;;;;4985076;28;20069;-80
2022/01/10 11:36:05;;;;;;;12.65;6.30;;;9.40;99.90;;;;;;4984338;28;20042;-79
2022/01/10 11:38:37;;;;;;;15.60;7.95;;;9.20;99.90;;;;;;5002225;28;20034;-79
2022/01/10 11:41:15;;;;;;;10.38;6.20;;;9.20;99.90;;;;;;5002085;28;20071;-80
2022/01/10 11:44:06;;;;;;;12.52;6.57;;;9.40;99.90;;;;;;5001605;28;20045;-80
2022/01/10 11:46:36;;;;;;;10.80;6.07;;;10.10;99.90;;;;;;4968030;28;20042;-79
2022/01/10 11:49:19;;;;;;;12.85;6.60;;;10.90;99.90;;;;;;4984901;28;20038;-80
2022/01/10 11:52:00;;;;;;;14.60;7.22;;;10.80;99.90;;;;;;5001426;28;20077;-79
2022/01/10 11:54:39;;;;;;;11.27;6.20;;;10.30;99.90;;;;;;5001751;28;20037;-78
2022/01/10 11:57:09;;;;;;;14.32;6.93;;;10.30;99.90;;;;;;4984731;28;20034;-80
2022/01/10 11:59:40;;;;;;;10.90;6.45;;;10.40;99.90;;;;;;4984189;28;20058;-79
2022/01/10 12:02:12;;;;;;;15.50;7.07;;;10.20;99.90;;;;;;5001313;28;20093;-78
2022/01/10 12:04:47;;;;;;;13.00;6.38;;;10.40;99.90;;;;;;4984167;28;20030;-79
2022/01/10 12:07:18;;;;;;;14.23;6.63;;;10.50;99.90;;;;;;4984700;28;20105;-78
2022/01/10 12:09:45;;;;;;;11.63;6.00;;;10.50;99.90;;;;;;5001097;28;20194;-80
2022/01/10 12:12:14;;;;;;;13.77;6.97;;;10.00;99.90;;;;;;4998601;28;20038;-80
2022/01/10 12:14:42;;;;;;;13.80;7.13;;;9.50;99.90;;;;;;5000963;28;20030;-79
2022/01/10 12:17:08;;;;;;;16.17;7.82;;;9.00;99.90;;;;;;4986440;28;20042;-80
2022/01/10 12:19:36;;;;;;;14.45;7.35;;;8.90;99.90;;;;;;4987653;28;20049;-80
2022/01/10 12:22:06;;;;;;;10.87;6.80;;;8.90;99.90;;;;;;5004906;28;20027;-80
2022/01/10 12:24:36;;;;;;;14.55;7.13;;;8.70;99.90;;;;;;4963832;28;20126;-80
2022/01/10 12:27:04;;;;;;;15.98;7.00;;;8.40;99.90;;;;;;4968643;28;20077;-80
2022/01/10 12:29:33;;;;;;;18.15;7.63;;;8.20;99.90;;;;;;4987755;28;20034;-80
2022/01/10 12:32:01;;;;;;;15.68;7.28;;;8.10;99.90;;;;;;5002915;28;20093;-80
2022/01/10 12:34:29;;;;;;;16.30;7.88;;;7.70;99.90;;;;;;5004723;28;20035;-79
2022/01/10 12:36:55;;;;;;;15.70;8.07;;;7.80;99.90;;;;;;5004851;28;20034;-79
2022/01/10 12:39:26;;;;;;;18.20;8.32;;;7.80;99.90;;;;;;4988169;28;20036;-79
2022/01/10 12:41:56;;;;;;;18.38;8.98;;;7.80;99.90;;;;;;4988787;28;20178;-79
2022/01/10 12:44:26;;;;;;;17.52;8.82;;;7.60;99.90;;;;;;4986256;28;20027;-80
2022/01/10 12:46:52;;;;;;;17.88;8.77;;;7.60;99.90;;;;;;4999521;28;20062;-79
2022/01/10 12:49:19;;;;;;;15.80;8.57;;;7.50;99.90;;;;;;4990023;28;20037;-78
2022/01/10 12:51:48;;;;;;;20.65;9.52;;;7.40;99.90;;;;;;4987781;28;20108;-78
2022/01/10 12:54:26;;;;;;;18.20;8.65;;;7.20;99.90;;;;;;5004720;28;20094;-79
2022/01/10 12:56:53;;;;;;;20.45;8.63;;;7.20;99.90;;;;;;5004064;28;20089;-80
2022/01/10 12:59:21;;;;;;;17.85;8.77;;;7.20;99.90;;;;;;4980258;28;20030;-80
2022/01/10 13:01:48;;;;;;;19.83;9.05;;;7.10;99.90;;;;;;4994805;28;20174;-78
2022/01/10 13:04:14;;;;;;;17.80;9.23;;;7.10;99.90;;;;;;4999187;28;20030;-79
2022/01/10 13:06:45;;;;;;;21.73;9.70;;;7.40;99.90;;;;;;4977354;28;20030;-81
2022/01/10 13:09:11;;;;;;;18.80;9.10;;;7.20;99.90;;;;;;4997093;28;20201;-79
2022/01/10 13:11:45;;;;;;;23.38;10.45;;;7.20;99.90;;;;;;5005377;28;20015;-80
2022/01/10 13:14:16;;;;;;;18.83;10.63;;;7.00;99.90;;;;;;5004725;28;20125;-81
2022/01/10 13:16:44;;;;;;;21.80;10.80;;;7.00;99.90;;;;;;5003722;28;20084;-80
2022/01/10 13:19:15;;;;;;;17.83;10.32;;;6.80;99.90;;;;;;4987020;28;20026;-78
2022/01/10 13:21:51;;;;;;;19.38;10.60;;;6.80;99.90;;;;;;4986613;28;20039;-79
2022/01/10 13:24:25;;;;;;;18.15;10.30;;;6.90;99.90;;;;;;4997935;28;20050;-79
2022/01/10 13:27:06;;;;;;;19.65;10.20;;;7.00;99.90;;;;;;4983875;28;20027;-78
2022/01/10 13:29:41;;;;;;;21.77;11.10;;;7.00;99.90;;;;;;4967005;28;20368;-78